sensor_id;sensor_type;location;lat;lon;timestamp;temperature;humidity
41922;DHT22;27609;51.002;5.354;2022-08-14T00:01:10;21.50;99.90
41922;DHT22;27609;51.002;5.354;2022-08-14T00:03:36;21.20;99.90
41922;DHT22;27609;51.002;5.354;2022-08-14T00:06:03;21.20;99.90
41922;DHT22;27609;51.002;5.354;2022-08-14T00:08:30;21.10;99.90
41922;DHT22;27609;51.002;5.354;2022-08-14T00:10:56;20.80;99.90
41922;DHT22;27609;51.002;5.354;2022-08-14T00:13:24;21.00;99.90
41922;DHT22;27609;51.002;5.354;2022-08-14T00:15:54;20.90;99.90
41922;DHT22;27609;51.002;5.354;2022-08-14T00:18:22;20.90;99.90
41922;DHT22;27609;51.002;5.354;2022-08-14T00:20:50;20.80;99.90
41922;DHT22;27609;51.002;5.354;2022-08-14T00:23:17;20.80;99.90
41922;DHT22;27609;51.002;5.354;2022-08-14T00:25:46;20.40;99.90
41922;DHT22;27609;51.002;5.354;2022-08-14T00:28:13;20.70;99.90
41922;DHT22;27609;51.002;5.354;2022-08-14T00:30:40;20.70;99.90
41922;DHT22;27609;51.002;5.354;2022-08-14T00:33:06;20.30;99.90
41922;DHT22;27609;51.002;5.354;2022-08-14T00:35:33;20.60;99.90
41922;DHT22;27609;51.002;5.354;2022-08-14T00:37:59;20.50;99.90
41922;DHT22;27609;51.002;5.354;2022-08-14T00:40:26;20.50;99.90
41922;DHT22;27609;51.002;5.354;2022-08-14T00:42:52;20.40;99.90
41922;DHT22;27609;51.002;5.354;2022-08-14T00:45:18;20.30;99.90
41922;DHT22;27609;51.002;5.354;2022-08-14T00:47:47;20.30;99.90
41922;DHT22;27609;51.002;5.354;2022-08-14T00:50:16;20.20;99.90
41922;DHT22;27609;51.002;5.354;2022-08-14T00:52:44;20.20;99.90
41922;DHT22;27609;51.002;5.354;2022-08-14T00:55:10;19.80;99.90
41922;DHT22;27609;51.002;5.354;2022-08-14T00:57:38;20.10;99.90
41922;DHT22;27609;51.002;5.354;2022-08-14T01:00:13;20.10;99.90
41922;DHT22;27609;51.002;5.354;2022-08-14T01:02:42;19.90;99.90
41922;DHT22;27609;51.002;5.354;2022-08-14T01:05:10;20.00;99.90
41922;DHT22;27609;51.002;5.354;2022-08-14T01:07:51;20.00;99.90
41922;DHT22;27609;51.002;5.354;2022-08-14T01:10:25;19.90;99.90
41922;DHT22;27609;51.002;5.354;2022-08-14T01:13:12;19.80;99.90
41922;DHT22;27609;51.002;5.354;2022-08-14T01:15:42;19.70;99.90
41922;DHT22;27609;51.002;5.354;2022-08-14T01:18:09;19.70;99.90
41922;DHT22;27609;51.002;5.354;2022-08-14T01:20:55;19.70;99.90
41922;DHT22;27609;51.002;5.354;2022-08-14T01:23:39;19.70;99.90
41922;DHT22;27609;51.002;5.354;2022-08-14T01:26:06;19.60;99.90
41922;DHT22;27609;51.002;5.354;2022-08-14T01:28:32;19.50;99.90
41922;DHT22;27609;51.002;5.354;2022-08-14T01:31:01;19.70;99.90
41922;DHT22;27609;51.002;5.354;2022-08-14T01:33:30;19.60;99.90
41922;DHT22;27609;51.002;5.354;2022-08-14T01:35:58;19.70;99.90
41922;DHT22;27609;51.002;5.354;2022-08-14T01:38:27;19.60;99.90
41922;DHT22;27609;51.002;5.354;2022-08-14T01:41:06;19.40;99.90
41922;DHT22;27609;51.002;5.354;2022-08-14T01:43:41;19.50;99.90
41922;DHT22;27609;51.002;5.354;2022-08-14T01:46:08;19.50;99.90
41922;DHT22;27609;51.002;5.354;2022-08-14T01:48:37;19.10;99.90
41922;DHT22;27609;51.002;5.354;2022-08-14T01:51:05;19.40;99.90
41922;DHT22;27609;51.002;5.354;2022-08-14T01:53:31;19.40;99.90
41922;DHT22;27609;51.002;5.354;2022-08-14T01:56:02;19.30;99.90
41922;DHT22;27609;51.002;5.354;2022-08-14T01:58:29;19.20;99.90
41922;DHT22;27609;51.002;5.354;2022-08-14T02:00:57;19.30;99.90
41922;DHT22;27609;51.002;5.354;2022-08-14T02:03:26;19.20;99.90
41922;DHT22;27609;51.002;5.354;2022-08-14T02:05:53;19.30;99.90
41922;DHT22;27609;51.002;5.354;2022-08-14T02:08:23;19.40;99.90
41922;DHT22;27609;51.002;5.354;2022-08-14T02:10:53;19.30;99.90
41922;DHT22;27609;51.002;5.354;2022-08-14T02:13:38;19.20;99.90
41922;DHT22;27609;51.002;5.354;2022-08-14T02:16:04;19.20;99.90
41922;DHT22;27609;51.002;5.354;2022-08-14T02:18:31;19.00;99.90
41922;DHT22;27609;51.002;5.354;2022-08-14T02:20:58;19.00;99.90
41922;DHT22;27609;51.002;5.354;2022-08-14T02:23:24;19.00;99.90
41922;DHT22;27609;51.002;5.354;2022-08-14T02:25:50;18.90;99.90
41922;DHT22;27609;51.002;5.354;2022-08-14T02:28:16;18.90;99.90
41922;DHT22;27609;51.002;5.354;2022-08-14T02:30:42;18.80;99.90
41922;DHT22;27609;51.002;5.354;2022-08-14T02:33:09;18.90;99.90
41922;DHT22;27609;51.002;5.354;2022-08-14T02:35:35;18.90;99.90
41922;DHT22;27609;51.002;5.354;2022-08-14T02:38:04;18.90;99.90
41922;DHT22;27609;51.002;5.354;2022-08-14T02:40:31;18.80;99.90
41922;DHT22;27609;51.002;5.354;2022-08-14T02:42:58;18.70;99.90
41922;DHT22;27609;51.002;5.354;2022-08-14T02:45:25;18.90;99.90
41922;DHT22;27609;51.002;5.354;2022-08-14T02:47:59;18.90;99.90
41922;DHT22;27609;51.002;5.354;2022-08-14T02:50:25;19.10;99.90
41922;DHT22;27609;51.002;5.354;2022-08-14T02:52:51;18.80;99.90
41922;DHT22;27609;51.002;5.354;2022-08-14T02:55:19;18.70;99.90
41922;DHT22;27609;51.002;5.354;2022-08-14T02:57:46;18.70;99.90
41922;DHT22;27609;51.002;5.354;2022-08-14T03:00:15;18.60;99.90
41922;DHT22;27609;51.002;5.354;2022-08-14T03:02:41;18.60;99.90
41922;DHT22;27609;51.002;5.354;2022-08-14T03:05:07;18.60;99.90
41922;DHT22;27609;51.002;5.354;2022-08-14T03:07:33;18.50;99.90
41922;DHT22;27609;51.002;5.354;2022-08-14T03:09:59;18.60;99.90
41922;DHT22;27609;51.002;5.354;2022-08-14T03:12:26;18.50;99.90
41922;DHT22;27609;51.002;5.354;2022-08-14T03:14:52;18.50;99.90
41922;DHT22;27609;51.002;5.354;2022-08-14T03:17:18;18.40;99.90
41922;DHT22;27609;51.002;5.354;2022-08-14T03:19:44;18.30;99.90
41922;DHT22;27609;51.002;5.354;2022-08-14T03:22:10;18.20;99.90
41922;DHT22;27609;51.002;5.354;2022-08-14T03:24:36;18.10;99.90
41922;DHT22;27609;51.002;5.354;2022-08-14T03:27:02;18.10;99.90
41922;DHT22;27609;51.002;5.354;2022-08-14T03:29:28;18.10;99.90
41922;DHT22;27609;51.002;5.354;2022-08-14T03:31:54;18.10;99.90
41922;DHT22;27609;51.002;5.354;2022-08-14T03:34:21;18.10;99.90
41922;DHT22;27609;51.002;5.354;2022-08-14T03:36:50;18.10;99.90
41922;DHT22;27609;51.002;5.354;2022-08-14T03:39:21;18.10;99.90
41922;DHT22;27609;51.002;5.354;2022-08-14T03:41:53;18.00;99.90
41922;DHT22;27609;51.002;5.354;2022-08-14T03:44:19;18.00;99.90
41922;DHT22;27609;51.002;5.354;2022-08-14T03:46:45;18.00;99.90
41922;DHT22;27609;51.002;5.354;2022-08-14T03:49:11;18.00;99.90
41922;DHT22;27609;51.002;5.354;2022-08-14T03:51:38;18.00;99.90
41922;DHT22;27609;51.002;5.354;2022-08-14T03:54:06;18.00;99.90
41922;DHT22;27609;51.002;5.354;2022-08-14T03:56:37;17.90;99.90
41922;DHT22;27609;51.002;5.354;2022-08-14T03:59:06;17.80;99.90
41922;DHT22;27609;51.002;5.354;2022-08-14T04:01:37;17.60;99.90
41922;DHT22;27609;51.002;5.354;2022-08-14T04:04:07;17.60;99.90
41922;DHT22;27609;51.002;5.354;2022-08-14T04:06:37;17.60;99.90
41922;DHT22;27609;51.002;5.354;2022-08-14T04:09:06;17.70;99.90
41922;DHT22;27609;51.002;5.354;2022-08-14T04:11:34;17.80;99.90
41922;DHT22;27609;51.002;5.354;2022-08-14T04:14:01;17.80;99.90
41922;DHT22;27609;51.002;5.354;2022-08-14T04:16:27;17.80;99.90
41922;DHT22;27609;51.002;5.354;2022-08-14T04:18:55;17.80;99.90
41922;DHT22;27609;51.002;5.354;2022-08-14T04:21:24;17.80;99.90
41922;DHT22;27609;51.002;5.354;2022-08-14T04:23:52;17.80;99.90
41922;DHT22;27609;51.002;5.354;2022-08-14T04:26:19;17.60;99.90
41922;DHT22;27609;51.002;5.354;2022-08-14T04:28:48;17.70;99.90
41922;DHT22;27609;51.002;5.354;2022-08-14T04:31:18;17.70;99.90
41922;DHT22;27609;51.002;5.354;2022-08-14T04:33:44;18.00;99.90
41922;DHT22;27609;51.002;5.354;2022-08-14T04:36:11;17.80;99.90
41922;DHT22;27609;51.002;5.354;2022-08-14T04:38:37;17.70;99.90
41922;DHT22;27609;51.002;5.354;2022-08-14T04:41:21;17.70;99.90
41922;DHT22;27609;51.002;5.354;2022-08-14T04:44:05;17.70;99.90
41922;DHT22;27609;51.002;5.354;2022-08-14T04:46:33;17.70;99.90
41922;DHT22;27609;51.002;5.354;2022-08-14T04:49:01;17.70;99.90
41922;DHT22;27609;51.002;5.354;2022-08-14T04:51:28;17.80;99.90
41922;DHT22;27609;51.002;5.354;2022-08-14T04:53:55;17.90;99.90
41922;DHT22;27609;51.002;5.354;2022-08-14T04:56:24;17.90;99.90
41922;DHT22;27609;51.002;5.354;2022-08-14T04:58:54;17.90;99.90
41922;DHT22;27609;51.002;5.354;2022-08-14T05:01:26;17.90;99.90
41922;DHT22;27609;51.002;5.354;2022-08-14T05:03:53;17.90;99.90
41922;DHT22;27609;51.002;5.354;2022-08-14T05:06:20;17.90;99.90
41922;DHT22;27609;51.002;5.354;2022-08-14T05:08:46;18.00;99.90
41922;DHT22;27609;51.002;5.354;2022-08-14T05:11:13;18.10;99.90
41922;DHT22;27609;51.002;5.354;2022-08-14T05:13:40;18.10;99.90
41922;DHT22;27609;51.002;5.354;2022-08-14T05:16:06;18.20;99.90
41922;DHT22;27609;51.002;5.354;2022-08-14T05:18:35;18.20;99.90
41922;DHT22;27609;51.002;5.354;2022-08-14T05:21:04;18.30;99.90
41922;DHT22;27609;51.002;5.354;2022-08-14T05:23:38;18.30;99.90
41922;DHT22;27609;51.002;5.354;2022-08-14T05:26:06;18.40;99.90
41922;DHT22;27609;51.002;5.354;2022-08-14T05:28:40;18.50;99.90
41922;DHT22;27609;51.002;5.354;2022-08-14T05:31:11;18.50;99.90
41922;DHT22;27609;51.002;5.354;2022-08-14T05:33:38;18.50;99.90
41922;DHT22;27609;51.002;5.354;2022-08-14T05:36:09;18.60;99.90
41922;DHT22;27609;51.002;5.354;2022-08-14T05:38:38;18.80;99.90
41922;DHT22;27609;51.002;5.354;2022-08-14T05:41:17;18.80;99.90
41922;DHT22;27609;51.002;5.354;2022-08-14T05:43:44;19.00;99.90
41922;DHT22;27609;51.002;5.354;2022-08-14T05:46:14;19.50;99.90
41922;DHT22;27609;51.002;5.354;2022-08-14T05:48:40;19.50;99.90
41922;DHT22;27609;51.002;5.354;2022-08-14T05:51:06;20.00;99.90
41922;DHT22;27609;51.002;5.354;2022-08-14T05:53:32;20.50;99.90
41922;DHT22;27609;51.002;5.354;2022-08-14T05:55:58;21.00;99.90
41922;DHT22;27609;51.002;5.354;2022-08-14T05:58:25;21.40;99.90
41922;DHT22;27609;51.002;5.354;2022-08-14T06:00:51;22.00;99.90
41922;DHT22;27609;51.002;5.354;2022-08-14T06:03:19;22.50;99.90
41922;DHT22;27609;51.002;5.354;2022-08-14T06:05:47;23.00;99.90
41922;DHT22;27609;51.002;5.354;2022-08-14T06:08:24;23.60;99.90
41922;DHT22;27609;51.002;5.354;2022-08-14T06:10:51;24.10;99.90
41922;DHT22;27609;51.002;5.354;2022-08-14T06:13:18;24.70;99.90
41922;DHT22;27609;51.002;5.354;2022-08-14T06:15:46;25.20;99.10
41922;DHT22;27609;51.002;5.354;2022-08-14T06:18:14;25.70;97.10
41922;DHT22;27609;51.002;5.354;2022-08-14T06:20:40;26.20;96.20
41922;DHT22;27609;51.002;5.354;2022-08-14T06:23:06;26.60;94.00
41922;DHT22;27609;51.002;5.354;2022-08-14T06:25:32;27.00;93.80
41922;DHT22;27609;51.002;5.354;2022-08-14T06:27:58;27.40;92.30
41922;DHT22;27609;51.002;5.354;2022-08-14T06:30:27;27.40;91.30
41922;DHT22;27609;51.002;5.354;2022-08-14T06:32:54;27.20;91.10
41922;DHT22;27609;51.002;5.354;2022-08-14T06:35:20;27.20;90.60
41922;DHT22;27609;51.002;5.354;2022-08-14T06:37:49;27.30;89.40
41922;DHT22;27609;51.002;5.354;2022-08-14T06:40:20;27.90;85.40
41922;DHT22;27609;51.002;5.354;2022-08-14T06:42:47;28.50;82.30
41922;DHT22;27609;51.002;5.354;2022-08-14T06:45:13;27.70;80.40
41922;DHT22;27609;51.002;5.354;2022-08-14T06:47:41;28.10;78.50
41922;DHT22;27609;51.002;5.354;2022-08-14T06:50:10;26.80;82.60
41922;DHT22;27609;51.002;5.354;2022-08-14T06:52:37;26.40;83.10
41922;DHT22;27609;51.002;5.354;2022-08-14T06:55:05;26.10;83.80
41922;DHT22;27609;51.002;5.354;2022-08-14T06:57:36;25.80;84.40
41922;DHT22;27609;51.002;5.354;2022-08-14T07:00:15;25.20;86.80
41922;DHT22;27609;51.002;5.354;2022-08-14T07:02:41;25.50;83.90
41922;DHT22;27609;51.002;5.354;2022-08-14T07:05:26;25.90;84.10
41922;DHT22;27609;51.002;5.354;2022-08-14T07:08:22;26.20;82.80
41922;DHT22;27609;51.002;5.354;2022-08-14T07:10:53;25.70;84.10
41922;DHT22;27609;51.002;5.354;2022-08-14T07:13:21;26.10;84.00
41922;DHT22;27609;51.002;5.354;2022-08-14T07:15:52;26.80;80.80
41922;DHT22;27609;51.002;5.354;2022-08-14T07:18:20;27.20;80.80
41922;DHT22;27609;51.002;5.354;2022-08-14T07:20:46;27.20;80.10
41922;DHT22;27609;51.002;5.354;2022-08-14T07:23:12;27.20;81.60
41922;DHT22;27609;51.002;5.354;2022-08-14T07:25:40;27.10;81.30
41922;DHT22;27609;51.002;5.354;2022-08-14T07:30:45;28.20;78.70
41922;DHT22;27609;51.002;5.354;2022-08-14T07:33:12;29.60;77.00
41922;DHT22;27609;51.002;5.354;2022-08-14T07:35:38;29.40;74.80
41922;DHT22;27609;51.002;5.354;2022-08-14T07:38:05;30.60;73.70
41922;DHT22;27609;51.002;5.354;2022-08-14T07:40:32;32.60;69.70
41922;DHT22;27609;51.002;5.354;2022-08-14T07:43:00;33.80;66.70
41922;DHT22;27609;51.002;5.354;2022-08-14T07:45:26;33.90;65.90
41922;DHT22;27609;51.002;5.354;2022-08-14T07:47:52;35.30;63.70
41922;DHT22;27609;51.002;5.354;2022-08-14T07:50:21;36.30;61.70
41922;DHT22;27609;51.002;5.354;2022-08-14T07:52:47;37.30;59.90
41922;DHT22;27609;51.002;5.354;2022-08-14T07:55:15;36.90;59.30
41922;DHT22;27609;51.002;5.354;2022-08-14T07:57:46;36.80;59.10
41922;DHT22;27609;51.002;5.354;2022-08-14T08:00:15;36.10;59.90
41922;DHT22;27609;51.002;5.354;2022-08-14T08:02:43;37.50;58.80
41922;DHT22;27609;51.002;5.354;2022-08-14T08:05:10;37.70;56.90
41922;DHT22;27609;51.002;5.354;2022-08-14T08:07:37;36.60;57.30
41922;DHT22;27609;51.002;5.354;2022-08-14T08:10:13;37.10;57.50
41922;DHT22;27609;51.002;5.354;2022-08-14T08:13:09;35.80;58.40
41922;DHT22;27609;51.002;5.354;2022-08-14T08:15:37;34.30;58.20
41922;DHT22;27609;51.002;5.354;2022-08-14T08:18:08;32.70;61.10
41922;DHT22;27609;51.002;5.354;2022-08-14T08:20:39;33.90;60.10
41922;DHT22;27609;51.002;5.354;2022-08-14T08:23:06;35.00;58.30
41922;DHT22;27609;51.002;5.354;2022-08-14T08:25:38;34.30;59.30
41922;DHT22;27609;51.002;5.354;2022-08-14T08:28:06;33.80;60.10
41922;DHT22;27609;51.002;5.354;2022-08-14T08:30:35;34.00;60.80
41922;DHT22;27609;51.002;5.354;2022-08-14T08:33:03;35.30;58.60
41922;DHT22;27609;51.002;5.354;2022-08-14T08:35:31;34.70;59.70
41922;DHT22;27609;51.002;5.354;2022-08-14T08:38:04;37.20;57.10
41922;DHT22;27609;51.002;5.354;2022-08-14T08:40:36;36.60;55.50
41922;DHT22;27609;51.002;5.354;2022-08-14T08:43:26;35.20;57.70
41922;DHT22;27609;51.002;5.354;2022-08-14T08:46:07;36.20;56.70
41922;DHT22;27609;51.002;5.354;2022-08-14T08:48:51;34.90;57.90
41922;DHT22;27609;51.002;5.354;2022-08-14T08:51:32;37.20;56.40
41922;DHT22;27609;51.002;5.354;2022-08-14T08:54:08;35.80;56.70
41922;DHT22;27609;51.002;5.354;2022-08-14T08:56:40;35.80;56.90
41922;DHT22;27609;51.002;5.354;2022-08-14T09:01:52;35.20;57.10
41922;DHT22;27609;51.002;5.354;2022-08-14T09:04:18;35.90;56.80
41922;DHT22;27609;51.002;5.354;2022-08-14T09:06:48;37.10;55.90
41922;DHT22;27609;51.002;5.354;2022-08-14T09:09:23;35.60;56.60
41922;DHT22;27609;51.002;5.354;2022-08-14T09:11:50;36.10;56.80
41922;DHT22;27609;51.002;5.354;2022-08-14T09:14:18;38.70;54.90
41922;DHT22;27609;51.002;5.354;2022-08-14T09:16:45;39.80;53.00
41922;DHT22;27609;51.002;5.354;2022-08-14T09:19:11;37.50;55.00
41922;DHT22;27609;51.002;5.354;2022-08-14T09:21:38;39.70;53.00
41922;DHT22;27609;51.002;5.354;2022-08-14T09:24:06;41.60;51.50
41922;DHT22;27609;51.002;5.354;2022-08-14T09:26:32;40.50;51.80
41922;DHT22;27609;51.002;5.354;2022-08-14T09:28:58;40.70;51.00
41922;DHT22;27609;51.002;5.354;2022-08-14T09:31:26;40.80;50.10
41922;DHT22;27609;51.002;5.354;2022-08-14T09:37:04;38.20;51.70
41922;DHT22;27609;51.002;5.354;2022-08-14T09:39:58;37.90;52.60
41922;DHT22;27609;51.002;5.354;2022-08-14T09:45:27;38.30;51.90
41922;DHT22;27609;51.002;5.354;2022-08-14T09:47:57;38.80;53.00
41922;DHT22;27609;51.002;5.354;2022-08-14T09:50:29;41.30;50.40
41922;DHT22;27609;51.002;5.354;2022-08-14T09:53:03;43.00;49.40
41922;DHT22;27609;51.002;5.354;2022-08-14T09:55:31;39.80;48.70
41922;DHT22;27609;51.002;5.354;2022-08-14T09:58:17;38.90;49.00
41922;DHT22;27609;51.002;5.354;2022-08-14T10:00:49;38.60;49.50
41922;DHT22;27609;51.002;5.354;2022-08-14T10:03:32;36.60;50.70
41922;DHT22;27609;51.002;5.354;2022-08-14T10:06:10;36.40;51.20
41922;DHT22;27609;51.002;5.354;2022-08-14T10:08:48;36.50;51.20
41922;DHT22;27609;51.002;5.354;2022-08-14T10:11:26;36.50;52.40
41922;DHT22;27609;51.002;5.354;2022-08-14T10:13:59;36.90;51.50
41922;DHT22;27609;51.002;5.354;2022-08-14T10:16:41;37.40;51.10
41922;DHT22;27609;51.002;5.354;2022-08-14T10:19:13;39.00;49.80
41922;DHT22;27609;51.002;5.354;2022-08-14T10:21:41;36.40;51.60
41922;DHT22;27609;51.002;5.354;2022-08-14T10:24:10;35.80;52.10
41922;DHT22;27609;51.002;5.354;2022-08-14T10:26:36;35.80;52.10
41922;DHT22;27609;51.002;5.354;2022-08-14T10:29:10;37.00;52.10
41922;DHT22;27609;51.002;5.354;2022-08-14T10:31:37;37.20;51.10
41922;DHT22;27609;51.002;5.354;2022-08-14T10:34:09;37.50;50.90
41922;DHT22;27609;51.002;5.354;2022-08-14T10:36:41;37.60;49.90
41922;DHT22;27609;51.002;5.354;2022-08-14T10:39:16;39.10;49.40
41922;DHT22;27609;51.002;5.354;2022-08-14T10:41:43;39.80;48.70
41922;DHT22;27609;51.002;5.354;2022-08-14T10:44:10;38.60;49.30
41922;DHT22;27609;51.002;5.354;2022-08-14T10:46:51;39.40;49.00
41922;DHT22;27609;51.002;5.354;2022-08-14T10:49:23;38.80;49.70
41922;DHT22;27609;51.002;5.354;2022-08-14T10:52:10;38.90;48.90
41922;DHT22;27609;51.002;5.354;2022-08-14T10:54:44;40.90;48.40
41922;DHT22;27609;51.002;5.354;2022-08-14T10:57:21;40.00;48.30
41922;DHT22;27609;51.002;5.354;2022-08-14T10:59:49;40.10;48.30
41922;DHT22;27609;51.002;5.354;2022-08-14T11:02:31;40.00;48.40
41922;DHT22;27609;51.002;5.354;2022-08-14T11:07:34;40.60;47.50
41922;DHT22;27609;51.002;5.354;2022-08-14T11:10:08;39.40;48.10
41922;DHT22;27609;51.002;5.354;2022-08-14T11:12:42;38.90;48.60
41922;DHT22;27609;51.002;5.354;2022-08-14T11:15:14;39.60;47.80
41922;DHT22;27609;51.002;5.354;2022-08-14T11:17:40;38.70;47.80
41922;DHT22;27609;51.002;5.354;2022-08-14T11:20:09;37.30;48.80
41922;DHT22;27609;51.002;5.354;2022-08-14T11:22:38;38.00;48.70
41922;DHT22;27609;51.002;5.354;2022-08-14T11:25:10;38.30;49.00
41922;DHT22;27609;51.002;5.354;2022-08-14T11:27:39;38.10;48.20
41922;DHT22;27609;51.002;5.354;2022-08-14T11:30:08;37.30;49.00
41922;DHT22;27609;51.002;5.354;2022-08-14T11:32:34;37.90;49.10
41922;DHT22;27609;51.002;5.354;2022-08-14T11:35:01;37.50;50.10
41922;DHT22;27609;51.002;5.354;2022-08-14T11:37:28;38.20;48.70
41922;DHT22;27609;51.002;5.354;2022-08-14T11:39:59;36.50;49.60
41922;DHT22;27609;51.002;5.354;2022-08-14T11:42:27;35.30;50.80
41922;DHT22;27609;51.002;5.354;2022-08-14T11:45:01;35.20;51.20
41922;DHT22;27609;51.002;5.354;2022-08-14T11:47:31;35.50;51.00
41922;DHT22;27609;51.002;5.354;2022-08-14T11:49:57;35.70;50.70
41922;DHT22;27609;51.002;5.354;2022-08-14T11:52:33;36.20;49.90
41922;DHT22;27609;51.002;5.354;2022-08-14T11:54:59;37.60;51.30
41922;DHT22;27609;51.002;5.354;2022-08-14T11:57:26;38.10;49.70
41922;DHT22;27609;51.002;5.354;2022-08-14T12:00:13;38.80;48.20
41922;DHT22;27609;51.002;5.354;2022-08-14T12:02:53;38.80;49.90
41922;DHT22;27609;51.002;5.354;2022-08-14T12:05:36;39.80;49.40
41922;DHT22;27609;51.002;5.354;2022-08-14T12:08:05;40.20;47.90
41922;DHT22;27609;51.002;5.354;2022-08-14T12:10:35;40.60;47.20
41922;DHT22;27609;51.002;5.354;2022-08-14T12:13:12;41.20;47.40
41922;DHT22;27609;51.002;5.354;2022-08-14T12:15:39;42.30;46.30
41922;DHT22;27609;51.002;5.354;2022-08-14T12:18:06;41.50;46.50
41922;DHT22;27609;51.002;5.354;2022-08-14T12:20:34;39.80;47.60
41922;DHT22;27609;51.002;5.354;2022-08-14T12:23:06;42.40;45.90
41922;DHT22;27609;51.002;5.354;2022-08-14T12:25:33;44.50;46.50
41922;DHT22;27609;51.002;5.354;2022-08-14T12:28:10;46.90;43.70
41922;DHT22;27609;51.002;5.354;2022-08-14T12:30:41;45.90;43.80
41922;DHT22;27609;51.002;5.354;2022-08-14T12:33:25;43.20;45.60
41922;DHT22;27609;51.002;5.354;2022-08-14T12:35:56;42.40;46.00
41922;DHT22;27609;51.002;5.354;2022-08-14T12:41:00;46.40;44.70
41922;DHT22;27609;51.002;5.354;2022-08-14T12:43:26;47.90;44.00
41922;DHT22;27609;51.002;5.354;2022-08-14T12:45:53;48.50;43.20
41922;DHT22;27609;51.002;5.354;2022-08-14T12:48:20;47.90;43.80
41922;DHT22;27609;51.002;5.354;2022-08-14T12:50:47;45.90;43.70
41922;DHT22;27609;51.002;5.354;2022-08-14T12:53:19;42.60;45.10
41922;DHT22;27609;51.002;5.354;2022-08-14T12:55:56;41.20;45.80
41922;DHT22;27609;51.002;5.354;2022-08-14T12:58:27;42.20;46.40
41922;DHT22;27609;51.002;5.354;2022-08-14T13:00:54;42.90;45.00
41922;DHT22;27609;51.002;5.354;2022-08-14T13:03:28;40.60;46.00
41922;DHT22;27609;51.002;5.354;2022-08-14T13:05:55;38.20;47.60
41922;DHT22;27609;51.002;5.354;2022-08-14T13:08:21;37.40;48.20
41922;DHT22;27609;51.002;5.354;2022-08-14T13:10:48;38.50;47.50
41922;DHT22;27609;51.002;5.354;2022-08-14T13:13:16;38.90;47.40
41922;DHT22;27609;51.002;5.354;2022-08-14T13:15:44;38.60;47.60
41922;DHT22;27609;51.002;5.354;2022-08-14T13:18:15;38.50;47.70
41922;DHT22;27609;51.002;5.354;2022-08-14T13:20:42;38.40;48.10
41922;DHT22;27609;51.002;5.354;2022-08-14T13:23:11;39.70;46.80
41922;DHT22;27609;51.002;5.354;2022-08-14T13:25:41;40.10;46.50
41922;DHT22;27609;51.002;5.354;2022-08-14T13:28:11;39.50;47.30
41922;DHT22;27609;51.002;5.354;2022-08-14T13:30:39;38.70;47.10
41922;DHT22;27609;51.002;5.354;2022-08-14T13:33:06;37.40;48.00
41922;DHT22;27609;51.002;5.354;2022-08-14T13:35:33;37.10;48.50
41922;DHT22;27609;51.002;5.354;2022-08-14T13:37:59;37.70;48.10
41922;DHT22;27609;51.002;5.354;2022-08-14T13:40:25;38.60;47.70
41922;DHT22;27609;51.002;5.354;2022-08-14T13:42:54;38.40;48.00
41922;DHT22;27609;51.002;5.354;2022-08-14T13:45:20;38.70;47.90
41922;DHT22;27609;51.002;5.354;2022-08-14T13:47:47;39.50;47.50
41922;DHT22;27609;51.002;5.354;2022-08-14T13:50:15;39.60;47.80
41922;DHT22;27609;51.002;5.354;2022-08-14T13:52:48;40.60;46.70
41922;DHT22;27609;51.002;5.354;2022-08-14T13:55:20;41.50;46.60
41922;DHT22;27609;51.002;5.354;2022-08-14T13:57:48;42.30;46.20
41922;DHT22;27609;51.002;5.354;2022-08-14T14:00:14;42.90;46.00
41922;DHT22;27609;51.002;5.354;2022-08-14T14:02:42;43.70;45.20
41922;DHT22;27609;51.002;5.354;2022-08-14T14:05:10;43.30;45.50
41922;DHT22;27609;51.002;5.354;2022-08-14T14:07:45;40.30;46.80
41922;DHT22;27609;51.002;5.354;2022-08-14T14:10:12;38.90;47.40
41922;DHT22;27609;51.002;5.354;2022-08-14T14:12:39;36.70;49.60
41922;DHT22;27609;51.002;5.354;2022-08-14T14:15:10;36.00;49.40
41922;DHT22;27609;51.002;5.354;2022-08-14T14:17:39;36.30;49.60
41922;DHT22;27609;51.002;5.354;2022-08-14T14:20:07;36.10;49.40
41922;DHT22;27609;51.002;5.354;2022-08-14T14:22:42;36.10;50.30
41922;DHT22;27609;51.002;5.354;2022-08-14T14:25:10;36.30;49.20
41922;DHT22;27609;51.002;5.354;2022-08-14T14:27:39;36.50;49.50
41922;DHT22;27609;51.002;5.354;2022-08-14T14:30:08;35.90;50.10
41922;DHT22;27609;51.002;5.354;2022-08-14T14:32:37;36.00;50.40
41922;DHT22;27609;51.002;5.354;2022-08-14T14:35:09;35.80;50.50
41922;DHT22;27609;51.002;5.354;2022-08-14T14:37:40;35.70;50.10
41922;DHT22;27609;51.002;5.354;2022-08-14T14:40:07;35.40;50.60
41922;DHT22;27609;51.002;5.354;2022-08-14T14:42:33;35.70;50.20
41922;DHT22;27609;51.002;5.354;2022-08-14T14:45:11;35.40;50.30
41922;DHT22;27609;51.002;5.354;2022-08-14T14:47:42;34.80;50.40
41922;DHT22;27609;51.002;5.354;2022-08-14T14:50:09;34.60;51.10
41922;DHT22;27609;51.002;5.354;2022-08-14T14:52:36;34.60;51.60
41922;DHT22;27609;51.002;5.354;2022-08-14T14:55:03;34.90;51.10
41922;DHT22;27609;51.002;5.354;2022-08-14T14:57:30;34.90;50.80
41922;DHT22;27609;51.002;5.354;2022-08-14T14:59:57;35.90;51.30
41922;DHT22;27609;51.002;5.354;2022-08-14T15:02:35;36.20;49.80
41922;DHT22;27609;51.002;5.354;2022-08-14T15:05:01;36.50;51.50
41922;DHT22;27609;51.002;5.354;2022-08-14T15:07:29;36.40;49.20
41922;DHT22;27609;51.002;5.354;2022-08-14T15:09:56;35.60;49.60
41922;DHT22;27609;51.002;5.354;2022-08-14T15:12:23;35.30;50.00
41922;DHT22;27609;51.002;5.354;2022-08-14T15:14:49;35.40;50.10
41922;DHT22;27609;51.002;5.354;2022-08-14T15:17:15;35.60;50.20
41922;DHT22;27609;51.002;5.354;2022-08-14T15:19:41;36.30;49.90
41922;DHT22;27609;51.002;5.354;2022-08-14T15:22:07;37.10;50.40
41922;DHT22;27609;51.002;5.354;2022-08-14T15:24:33;37.70;48.30
41922;DHT22;27609;51.002;5.354;2022-08-14T15:27:01;37.40;48.90
41922;DHT22;27609;51.002;5.354;2022-08-14T15:29:29;37.40;48.70
41922;DHT22;27609;51.002;5.354;2022-08-14T15:31:55;36.40;49.10
41922;DHT22;27609;51.002;5.354;2022-08-14T15:34:21;36.40;50.20
41922;DHT22;27609;51.002;5.354;2022-08-14T15:36:47;36.80;49.10
41922;DHT22;27609;51.002;5.354;2022-08-14T15:39:15;36.70;48.80
41922;DHT22;27609;51.002;5.354;2022-08-14T15:41:41;36.30;49.40
41922;DHT22;27609;51.002;5.354;2022-08-14T15:44:08;36.40;49.70
41922;DHT22;27609;51.002;5.354;2022-08-14T15:46:37;36.30;49.90
41922;DHT22;27609;51.002;5.354;2022-08-14T15:49:03;36.00;49.90
41922;DHT22;27609;51.002;5.354;2022-08-14T15:51:29;35.60;50.60
41922;DHT22;27609;51.002;5.354;2022-08-14T15:53:57;35.20;50.90
41922;DHT22;27609;51.002;5.354;2022-08-14T15:56:23;35.10;50.60
41922;DHT22;27609;51.002;5.354;2022-08-14T15:58:49;34.70;51.00
41922;DHT22;27609;51.002;5.354;2022-08-14T16:01:15;35.10;51.30